Weather History for Tampa Macdill AFB, FL

Change the Weather History Date:

Saturday, December 15, 2012

  Actual Average Record
Temperature  
Mean Temperature 66 °F -  
Max Temperature 78 °F 69 °F 84 °F (2000)
Min Temperature 53 °F 52 °F 28 °F (2010)
Growing Degree Days 16 (Base 50)    
Moisture  
Dew Point 59 °F    
Average Humidity 96    
Maximum Humidity 100    
Minimum Humidity 65    
Precipitation  
Precipitation 0.00 in - - ()
Sea Level Pressure  
Sea Level Pressure 30.12 in    
Wind  
Wind Speed 7 mph (ENE)    
Max Wind Speed 13 mph    
Max Gust Speed -    
Visibility 5 miles    
Events Fog    
Averages and records for this station are not official NWS values.
T = Trace of Precipitation, MM = Missing Value Source: NWS Daily Summary

Daily Weather History Graph

Daily Weather History Graph

Search for Another Location

Airport:

Trip Planner

Search our weather history database for the weather conditions in past years. The results will help you decide how hot, cold, wet, or windy it might be!

Date:

Astronomy

Dec. 15, 2012 Rise Set
Actual Time 7:13 AM EST 5:37 PM EST
Civil Twilight 6:48 AM EST 6:02 PM EST
Nautical Twilight 6:18 AM EST 6:32 PM EST
Astronomical Twilight 5:50 AM EST 7:00 PM EST
Moon 9:14 AM EST (12/15) 8:29 PM EST (12/15)
Length of Visible Light 11h 14m
Length of Day
10h 23m
Waxing Crescent, 8% of the Moon is Illuminated
Dec 15
Waxing Crescent
Dec 20
First Quarter
Dec 28
Full
Jan 4
Last Quarter
Jan 11
New

Hourly Weather History & Observations

Time (EST) Temp. Dew Point Humidity Pressure Visibility Wind Dir Wind Speed Gust Speed Precip Events Conditions
12:55 AM 55.0 °F 54.7 °F 99% 30.11 in 10.0 mi NNE 5.8 mph - N/A   Clear
1:55 AM 54.5 °F 54.1 °F 99% 30.12 in 10.0 mi North 3.5 mph - N/A   Clear
2:13 AM 53.6 °F 53.6 °F 100% 30.11 in 9.0 mi Calm Calm - N/A   Clear
2:14 AM 53.6 °F 53.6 °F 100% 30.11 in 9.0 mi Calm Calm - N/A   Clear
2:55 AM 53.8 °F 53.6 °F 99% 30.12 in 10.0 mi NNE 4.6 mph - N/A   Clear
3:55 AM 54.1 °F 53.8 °F 99% 30.11 in 10.0 mi ENE 10.4 mph - N/A   Partly Cloudy
4:55 AM 57.2 °F 57.2 °F 100% 30.09 in 10.0 mi East 9.2 mph - N/A   Partly Cloudy
5:54 AM 55.4 °F 55.4 °F 100% 30.09 in 9.0 mi East 5.8 mph - N/A   Clear
5:55 AM 56.3 °F 56.1 °F 99% 30.09 in 9.0 mi East 6.9 mph - N/A   Clear
6:05 AM 55.4 °F 55.4 °F 100% 30.10 in 9.0 mi East 8.1 mph - N/A   Clear
6:23 AM 57.2 °F 57.2 °F 100% 30.11 in 5.0 mi East 9.2 mph - N/A   Scattered Clouds
6:24 AM 57.2 °F 57.2 °F 100% 30.11 in 5.0 mi East 8.1 mph - N/A   Mostly Cloudy
6:27 AM 57.2 °F 57.2 °F 100% 30.11 in 4.0 mi East 8.1 mph - N/A   Mostly Cloudy
6:29 AM 57.2 °F 57.2 °F 100% 30.11 in 4.0 mi East 8.1 mph - N/A   Mostly Cloudy
6:34 AM 57.2 °F 57.2 °F 100% 30.11 in 2.5 mi East 6.9 mph - N/A   Mostly Cloudy
6:37 AM 57.2 °F 57.2 °F 100% 30.11 in 2.5 mi East 6.9 mph - N/A   Mostly Cloudy
6:43 AM 57.2 °F 57.2 °F 100% 30.11 in 1.8 mi East 8.1 mph - N/A   Overcast
6:51 AM 57.2 °F 57.2 °F 100% 30.11 in 1.2 mi East 6.9 mph - N/A   Overcast
6:55 AM 57.6 °F 57.6 °F 100% 30.11 in 1.2 mi East 8.1 mph - N/A   Overcast
6:56 AM 57.2 °F 57.2 °F 100% 30.11 in 1.0 mi East 8.1 mph - N/A   Mist
7:06 AM 57.2 °F 57.2 °F 100% 30.11 in 0.8 mi East 5.8 mph - N/A   Mist
7:08 AM 57.2 °F 57.2 °F 100% 30.11 in 0.5 mi East 6.9 mph - N/A Fog Fog
7:10 AM 57.2 °F 57.2 °F 100% 30.11 in 0.5 mi East 8.1 mph - N/A Fog Fog
7:11 AM 57.2 °F 57.2 °F 100% 30.11 in 0.2 mi East 6.9 mph - N/A Fog Fog
7:55 AM 57.9 °F 57.9 °F 100% 30.13 in 0.2 mi East 9.2 mph - N/A Fog Fog
8:01 AM 57.2 °F 57.2 °F 100% 30.14 in 0.2 mi East 9.2 mph - N/A Fog Fog
8:11 AM 59.0 °F 59.0 °F 100% 30.15 in 0.2 mi ENE 9.2 mph - N/A Fog Fog
8:12 AM 59.0 °F 59.0 °F 100% 30.15 in 0.2 mi ENE 8.1 mph - N/A Fog Fog
8:17 AM 59.0 °F 59.0 °F 100% 30.15 in 0.5 mi NE 5.8 mph - N/A Fog Fog
8:20 AM 59.0 °F 59.0 °F 100% 30.15 in 0.5 mi ENE 8.1 mph - N/A Fog Fog
8:29 AM 59.0 °F 59.0 °F 100% 30.15 in 0.5 mi ENE 9.2 mph - N/A Fog Fog
8:32 AM 59.0 °F 59.0 °F 100% 30.15 in 0.8 mi East 9.2 mph - N/A   Mist
8:34 AM 59.0 °F 59.0 °F 100% 30.15 in 0.8 mi East 11.5 mph - N/A   Mist
8:35 AM 59.0 °F 59.0 °F 100% 30.15 in 0.8 mi East 11.5 mph - N/A   Mist
8:36 AM 59.0 °F 59.0 °F 100% 30.15 in 0.8 mi East 11.5 mph - N/A   Mist
8:37 AM 59.0 °F 59.0 °F 100% 30.15 in 1.0 mi East 10.4 mph - N/A   Mist
8:41 AM 59.0 °F 59.0 °F 100% 30.15 in 1.2 mi East 12.7 mph - N/A   Overcast
8:45 AM 59.0 °F 59.0 °F 100% 30.15 in 1.5 mi East 11.5 mph - N/A   Overcast
8:46 AM 59.0 °F 59.0 °F 100% 30.15 in 1.2 mi ENE 12.7 mph - N/A   Overcast
8:55 AM 58.8 °F 58.8 °F 100% 30.15 in 1.2 mi East 11.5 mph - N/A   Overcast
8:57 AM 59.0 °F 59.0 °F 100% 30.15 in 1.0 mi East 12.7 mph - N/A   Mist
9:05 AM 59.0 °F 59.0 °F 100% 30.16 in 1.2 mi East 10.4 mph - N/A   Overcast
9:08 AM 59.0 °F 59.0 °F 100% 30.16 in 1.5 mi East 9.2 mph - N/A   Overcast
9:12 AM 59.0 °F 59.0 °F 100% 30.16 in 2.0 mi East 9.2 mph - N/A   Overcast
9:26 AM 59.0 °F 59.0 °F 100% 30.16 in 3.0 mi East 9.2 mph - N/A   Overcast
9:49 AM 60.8 °F 60.8 °F 100% 30.17 in 8.0 mi ENE 8.1 mph - N/A   Overcast
9:55 AM 61.2 °F 61.2 °F 100% 30.17 in 9.0 mi East 6.9 mph - N/A   Overcast
9:59 AM 60.8 °F 60.8 °F 100% 30.17 in 10.0 mi East 6.9 mph - N/A   Overcast
10:10 AM 62.6 °F 62.6 °F 100% 30.17 in 10.0 mi ENE 6.9 mph - N/A   Overcast
10:34 AM 62.6 °F 62.6 °F 100% 30.17 in 10.0 mi East 6.9 mph - N/A   Overcast
10:55 AM 65.1 °F 65.1 °F 100% 30.17 in 10.0 mi ENE 5.8 mph - N/A   Overcast
11:55 AM 69.6 °F 68.0 °F 95% 30.14 in 10.0 mi East 6.9 mph - N/A   Overcast
12:55 PM 74.5 °F 66.9 °F 77% 30.11 in 10.0 mi NE 4.6 mph - N/A   Mostly Cloudy
1:55 PM 77.0 °F 67.1 °F 71% 30.08 in 10.0 mi Variable 5.8 mph - N/A   Mostly Cloudy
2:55 PM 78.6 °F 66.6 °F 66% 30.06 in 10.0 mi ESE 8.1 mph - N/A   Clear
3:55 PM 78.1 °F 65.3 °F 65% 30.07 in 10.0 mi East 6.9 mph - N/A   Clear
4:55 PM 75.2 °F 65.5 °F 72% 30.06 in 10.0 mi East 5.8 mph - N/A   Partly Cloudy
5:55 PM 69.8 °F 63.0 °F 79% 30.08 in 10.0 mi ENE 3.5 mph - N/A   Partly Cloudy
6:55 PM 66.7 °F 62.4 °F 86% 30.09 in 10.0 mi ENE 4.6 mph - N/A   Partly Cloudy
7:55 PM 64.6 °F 60.8 °F 88% 30.08 in 10.0 mi Calm Calm - N/A   Clear
8:55 PM 62.2 °F 59.5 °F 91% 30.09 in 10.0 mi Calm Calm - N/A   Clear
9:55 PM 60.8 °F 60.3 °F 98% 30.09 in 10.0 mi ESE 6.9 mph - N/A   Clear
10:55 PM 64.9 °F 63.1 °F 94% 30.08 in 10.0 mi ESE 6.9 mph - N/A   Clear
11:55 PM 64.0 °F 63.1 °F 97% 30.08 in 10.0 mi ESE 5.8 mph - N/A   Clear